createdAt,value
2019-04-07T00:03:10.866Z,15.53
2019-04-07T00:07:20.234Z,14.87
2019-04-07T00:11:29.759Z,20.23
2019-04-07T00:15:38.963Z,54.73
2019-04-07T00:19:48.079Z,17.57
2019-04-07T00:23:57.913Z,10.87
2019-04-07T00:28:06.830Z,16.13
2019-04-07T00:32:15.785Z,15.60
2019-04-07T00:36:24.646Z,15.37
2019-04-07T00:40:33.833Z,14.07
2019-04-07T00:44:43.278Z,12.50
2019-04-07T00:48:52.085Z,14.93
2019-04-07T00:53:01.285Z,13.90
2019-04-07T00:57:10.802Z,12.07
2019-04-07T01:01:20.715Z,11.20
2019-04-07T01:05:36.737Z,11.70
2019-04-07T01:09:40.207Z,11.73
2019-04-07T01:13:49.090Z,13.80
2019-04-07T01:17:57.939Z,11.83
2019-04-07T01:22:06.839Z,10.73
2019-04-07T01:26:16.337Z,13.40
2019-04-07T01:30:25.386Z,13.03
2019-04-07T01:34:34.969Z,13.40
2019-04-07T01:38:44.494Z,12.97
2019-04-07T01:43:01.484Z,13.40
2019-04-07T01:47:35.446Z,12.50
2019-04-07T01:52:07.196Z,11.70
2019-04-07T01:56:24.870Z,12.57
2019-04-07T02:00:58.788Z,12.07
2019-04-07T02:05:27.143Z,12.80
2019-04-07T02:09:54.571Z,12.00
2019-04-07T02:14:35.520Z,12.00
2019-04-07T02:19:10.874Z,13.33
2019-04-07T02:23:27.365Z,11.73
2019-04-07T02:27:58.589Z,14.83
2019-04-07T02:32:34.449Z,15.93
2019-04-07T02:36:58.119Z,14.40
2019-04-07T02:41:33.201Z,13.80
2019-04-07T02:46:04.239Z,14.60
2019-04-07T02:50:35.790Z,13.20
2019-04-07T02:55:00.055Z,14.30
2019-04-07T02:59:42.773Z,13.87
2019-04-07T03:04:08.204Z,13.70
2019-04-07T03:08:38.282Z,13.43
2019-04-07T03:13:09.941Z,14.07
2019-04-07T03:17:50.311Z,14.63
2019-04-07T03:22:11.124Z,14.63
2019-04-07T03:26:51.302Z,14.70
2019-04-07T03:31:12.476Z,15.00
2019-04-07T03:35:30.149Z,15.40
2019-04-07T03:40:00.792Z,14.73
2019-04-07T03:44:27.672Z,15.23
2019-04-07T03:48:44.326Z,15.03
2019-04-07T03:53:12.531Z,14.23
2019-04-07T03:57:43.522Z,16.20
2019-04-07T04:02:11.010Z,15.63
2019-04-07T04:06:38.890Z,16.80
2019-04-07T04:10:54.571Z,17.77
2019-04-07T04:15:08.784Z,16.47
2019-04-07T04:19:18.672Z,16.57
2019-04-07T04:23:28.478Z,16.63
2019-04-07T04:27:38.607Z,16.57
2019-04-07T04:31:47.605Z,17.30
2019-04-07T04:35:56.685Z,17.50
2019-04-07T04:40:07.299Z,16.80
2019-04-07T04:44:16.569Z,17.37
2019-04-07T04:48:25.919Z,17.40
2019-04-07T04:52:34.913Z,17.23
2019-04-07T04:56:44.793Z,19.10
2019-04-07T05:00:54.331Z,18.00
2019-04-07T05:05:04.004Z,17.50
2019-04-07T05:09:13.354Z,19.07
2019-04-07T05:13:22.489Z,18.37
2019-04-07T05:17:31.380Z,18.83
2019-04-07T05:21:40.502Z,18.40
2019-04-07T05:25:49.427Z,17.50
2019-04-07T05:29:58.379Z,17.73
2019-04-07T05:34:07.405Z,16.13
2019-04-07T05:38:16.555Z,16.37
2019-04-07T05:42:26.649Z,16.97
2019-04-07T05:46:38.538Z,17.00
2019-04-07T05:50:46.197Z,16.57
2019-04-07T05:54:56.176Z,16.70
2019-04-07T05:59:05.145Z,17.50
2019-04-07T06:03:14.299Z,16.57
2019-04-07T06:07:25.675Z,17.20
2019-04-07T06:11:36.128Z,17.80
2019-04-07T06:15:44.794Z,17.70
2019-04-07T06:19:53.647Z,18.77
2019-04-07T06:24:02.757Z,20.37
2019-04-07T06:28:13.937Z,24.20
2019-04-07T06:32:24.423Z,28.93
2019-04-07T06:36:34.005Z,23.07
2019-04-07T06:40:43.691Z,20.27
2019-04-07T06:44:52.840Z,22.67
2019-04-07T06:49:11.695Z,21.00
2019-04-07T06:53:52.418Z,21.07
2019-04-07T06:58:10.017Z,18.90
2019-04-07T07:02:39.063Z,22.67
2019-04-07T07:06:57.888Z,21.77
2019-04-07T07:11:28.875Z,21.53
2019-04-07T07:15:57.349Z,21.00
2019-04-07T07:20:19.738Z,19.37
2019-04-07T07:24:29.558Z,20.10
2019-04-07T07:28:42.509Z,19.73
2019-04-07T07:32:49.762Z,20.77
2019-04-07T07:36:59.177Z,20.57
2019-04-07T07:41:08.995Z,20.40
2019-04-07T07:45:18.724Z,21.43
2019-04-07T07:49:28.862Z,22.73
2019-04-07T07:53:38.331Z,20.63
2019-04-07T07:57:48.107Z,19.40
2019-04-07T08:01:57.819Z,20.67
2019-04-07T08:06:08.332Z,19.23
2019-04-07T08:10:18.612Z,20.13
2019-04-07T08:14:28.294Z,20.60
2019-04-07T08:18:40.641Z,18.30
2019-04-07T08:22:48.233Z,19.17
2019-04-07T08:26:58.861Z,18.20
2019-04-07T08:31:08.360Z,17.07
2019-04-07T08:35:17.616Z,15.83
2019-04-07T08:39:32.371Z,14.17
2019-04-07T08:43:38.262Z,13.60
2019-04-07T08:47:49.014Z,13.57
2019-04-07T08:51:58.275Z,12.80
2019-04-07T08:56:08.888Z,12.93
2019-04-07T09:00:23.274Z,13.53
2019-04-07T09:04:32.086Z,12.10
2019-04-07T09:08:41.042Z,12.80
2019-04-07T09:12:51.151Z,12.13
2019-04-07T09:17:32.923Z,13.20
2019-04-07T09:21:51.655Z,11.33
2019-04-07T09:26:10.101Z,10.10
2019-04-07T09:30:36.809Z,9.77
2019-04-07T09:34:56.250Z,10.13
2019-04-07T09:39:44.795Z,9.37
2019-04-07T09:44:03.122Z,10.60
2019-04-07T09:48:30.625Z,9.90
2019-04-07T09:52:56.180Z,10.33
2019-04-07T09:57:23.613Z,9.77
2019-04-07T10:01:37.434Z,9.23
2019-04-07T10:06:04.145Z,10.00
2019-04-07T10:10:41.502Z,9.60
2019-04-07T10:15:08.151Z,9.70
2019-04-07T10:19:39.202Z,8.77
2019-04-07T10:24:09.944Z,9.57
2019-04-07T10:28:33.275Z,9.10
2019-04-07T10:32:55.283Z,10.17
2019-04-07T10:37:23.243Z,8.10
2019-04-07T10:41:59.247Z,8.10
2019-04-07T10:46:22.651Z,8.80
2019-04-07T10:50:51.844Z,7.40
2019-04-07T10:55:35.188Z,8.60
2019-04-07T11:00:05.929Z,8.07
2019-04-07T11:04:38.779Z,8.20
2019-04-07T11:09:00.388Z,7.83
2019-04-07T11:13:27.598Z,7.20
2019-04-07T11:17:53.962Z,6.53
2019-04-07T11:22:21.965Z,7.83
2019-04-07T11:26:51.763Z,7.07
2019-04-07T11:31:24.413Z,7.80
2019-04-07T11:35:41.467Z,7.10
2019-04-07T11:40:02.275Z,7.77
2019-04-07T11:44:22.954Z,6.97
2019-04-07T11:48:45.094Z,7.00
2019-04-07T11:53:01.829Z,7.07
2019-04-07T11:57:17.458Z,7.17
2019-04-07T12:01:49.859Z,6.97
2019-04-07T12:06:25.394Z,6.37
2019-04-07T12:10:58.566Z,5.50
2019-04-07T12:15:30.977Z,5.57
2019-04-07T12:20:11.349Z,5.40
2019-04-07T12:24:39.200Z,5.33
2019-04-07T12:29:06.918Z,4.90
2019-04-07T12:33:39.330Z,5.60
2019-04-07T12:38:12.190Z,6.17
2019-04-07T12:42:35.743Z,5.57
2019-04-07T12:46:55.641Z,5.73
2019-04-07T12:51:24.118Z,5.67
2019-04-07T12:55:53.262Z,5.40
2019-04-07T13:00:15.727Z,5.03
2019-04-07T13:04:31.876Z,5.37
2019-04-07T13:09:00.765Z,4.93
2019-04-07T13:13:36.351Z,5.23
2019-04-07T13:18:09.640Z,5.47
2019-04-07T13:22:36.471Z,5.50
2019-04-07T13:26:50.034Z,5.57
2019-04-07T13:31:06.946Z,5.70
2019-04-07T13:35:38.194Z,6.20
2019-04-07T13:40:10.573Z,5.73
2019-04-07T13:44:40.702Z,5.60
2019-04-07T13:49:09.662Z,5.10
2019-04-07T13:53:50.088Z,5.70
2019-04-07T13:58:14.990Z,5.50
2019-04-07T14:02:42.145Z,5.67
2019-04-07T14:07:16.908Z,5.60
2019-04-07T14:12:05.059Z,5.23
2019-04-07T14:16:25.770Z,5.37
2019-04-07T14:20:51.123Z,4.80
2019-04-07T14:25:13.464Z,5.70
2019-04-07T14:29:37.453Z,5.73
2019-04-07T14:33:57.753Z,5.70
2019-04-07T14:38:25.540Z,5.67
2019-04-07T14:43:05.743Z,5.20
2019-04-07T14:47:37.076Z,5.27
2019-04-07T14:52:05.734Z,5.87
2019-04-07T14:56:35.665Z,5.43
2019-04-07T15:01:14.675Z,5.70
2019-04-07T15:05:35.798Z,6.03
2019-04-07T15:09:52.485Z,5.80
2019-04-07T15:14:02.542Z,5.73
2019-04-07T15:18:12.712Z,5.80
2019-04-07T15:22:25.135Z,5.60
2019-04-07T15:26:32.569Z,5.43
2019-04-07T15:30:46.103Z,5.80
2019-04-07T15:34:53.038Z,5.53
2019-04-07T15:39:03.226Z,5.67
2019-04-07T15:43:12.615Z,6.00
2019-04-07T15:47:22.216Z,6.00
2019-04-07T15:51:34.171Z,5.60
2019-04-07T15:55:47.717Z,8.37
2019-04-07T15:59:54.116Z,5.60
2019-04-07T16:04:05.527Z,5.93
2019-04-07T16:08:14.338Z,7.13
2019-04-07T16:12:24.063Z,5.80
2019-04-07T16:16:32.994Z,4.73
2019-04-07T16:20:43.154Z,5.30
2019-04-07T16:24:55.037Z,5.40
2019-04-07T16:29:03.358Z,5.10
2019-04-07T16:33:12.859Z,4.70
2019-04-07T16:37:21.756Z,4.97
2019-04-07T16:41:31.569Z,5.30
2019-04-07T16:45:44.110Z,6.20
2019-04-07T16:49:52.347Z,5.83
2019-04-07T16:54:02.684Z,5.30
2019-04-07T16:58:11.834Z,4.70
2019-04-07T17:02:20.736Z,4.33
2019-04-07T17:06:34.710Z,4.57
2019-04-07T17:10:41.183Z,4.47
2019-04-07T17:14:51.127Z,5.07
2019-04-07T17:19:02.027Z,5.37
2019-04-07T17:23:11.238Z,5.27
2019-04-07T17:27:20.499Z,7.07
2019-04-07T17:31:32.066Z,9.40
2019-04-07T17:35:43.247Z,7.40
2019-04-07T17:39:57.841Z,6.23
2019-04-07T17:44:26.591Z,5.50
2019-04-07T17:48:57.216Z,5.03
2019-04-07T17:53:23.618Z,5.03
2019-04-07T17:57:38.319Z,5.00
2019-04-07T18:02:05.385Z,5.90
2019-04-07T18:06:36.631Z,5.17
2019-04-07T18:11:08.692Z,5.37
2019-04-07T18:15:38.338Z,7.83
2019-04-07T18:20:09.685Z,5.97
2019-04-07T18:24:34.111Z,5.47
2019-04-07T18:28:52.689Z,5.23
2019-04-07T18:33:22.567Z,4.70
2019-04-07T18:37:52.769Z,5.30
2019-04-07T18:42:32.960Z,5.60
2019-04-07T18:47:15.141Z,5.80
2019-04-07T18:51:31.997Z,7.73
2019-04-07T18:55:54.621Z,10.17
2019-04-07T19:00:21.033Z,17.40
2019-04-07T19:04:50.094Z,12.00
2019-04-07T19:09:10.096Z,10.87
2019-04-07T19:13:37.741Z,12.40
2019-04-07T19:18:05.813Z,8.10
2019-04-07T19:22:32.902Z,10.80
2019-04-07T19:27:17.343Z,9.30
2019-04-07T19:31:36.320Z,9.20
2019-04-07T19:36:02.922Z,7.97
2019-04-07T19:40:27.723Z,7.77
2019-04-07T19:45:03.988Z,7.80
2019-04-07T19:49:31.142Z,7.60
2019-04-07T19:54:00.531Z,7.27
2019-04-07T19:58:17.763Z,10.83
2019-04-07T20:02:37.370Z,9.03
2019-04-07T20:07:04.803Z,24.73
2019-04-07T20:11:38.374Z,41.47
2019-04-07T20:16:00.355Z,7.43
2019-04-07T20:20:41.899Z,16.17
2019-04-07T20:25:12.366Z,20.43
2019-04-07T20:29:41.346Z,21.43
2019-04-07T20:34:05.585Z,24.77
2019-04-07T20:38:30.522Z,14.40
2019-04-07T20:42:58.335Z,14.53
2019-04-07T20:47:29.880Z,10.60
2019-04-07T20:52:11.398Z,6.60
2019-04-07T20:56:35.363Z,6.67
2019-04-07T21:01:00.688Z,35.80
2019-04-07T21:05:24.643Z,36.10
2019-04-07T21:09:52.082Z,74.30
2019-04-07T21:14:09.218Z,61.73
2019-04-07T21:18:37.031Z,16.37
2019-04-07T21:23:05.132Z,9.87
2019-04-07T21:27:27.091Z,9.17
2019-04-07T21:31:42.986Z,8.90
2019-04-07T21:36:06.399Z,11.87
2019-04-07T21:40:26.558Z,10.00
2019-04-07T21:44:51.135Z,9.30
2019-04-07T21:49:38.507Z,9.20
2019-04-07T21:54:04.004Z,9.57
2019-04-07T21:58:31.513Z,10.17
2019-04-07T22:03:11.419Z,11.70
2019-04-07T22:07:31.540Z,9.73
2019-04-07T22:11:41.845Z,10.80
2019-04-07T22:15:56.258Z,13.03
2019-04-07T22:20:00.777Z,13.20
2019-04-07T22:24:11.013Z,12.27
2019-04-07T22:28:20.668Z,13.10
2019-04-07T22:32:31.065Z,13.10
2019-04-07T22:36:41.649Z,11.03
2019-04-07T22:40:52.089Z,11.20
2019-04-07T22:45:02.120Z,9.60
2019-04-07T22:49:11.401Z,8.23
2019-04-07T22:53:22.541Z,8.63
2019-04-07T22:57:31.941Z,8.67
2019-04-07T23:01:40.989Z,8.70
2019-04-07T23:05:51.203Z,9.83
2019-04-07T23:10:00.502Z,8.87
2019-04-07T23:14:09.514Z,8.80
2019-04-07T23:18:18.408Z,8.83
2019-04-07T23:22:27.787Z,8.87
2019-04-07T23:26:36.714Z,8.70
2019-04-07T23:30:45.594Z,9.17
2019-04-07T23:34:55.430Z,9.77
2019-04-07T23:39:06.397Z,9.90
2019-04-07T23:43:15.333Z,8.73
2019-04-07T23:47:24.214Z,8.87
2019-04-07T23:51:33.166Z,9.20
2019-04-07T23:55:42.208Z,8.90
2019-04-07T23:59:51.615Z,9.73
